Time;durP1;ratioP1;P1;durP2;ratioP2;P2;SDS_P1;SDS_P2;PMS_P1;PMS_P2;Temp;Humidity;BMP_temperature;BMP_pressure;BME280_temperature;BME280_humidity;BME280_pressure;Samples;Min_cycle;Max_cycle;Signal;HPM_P1;HPM_P2
2022/09/30 00:02:05;;;;;;;2.30;1.90;;;;;;;29.57;23.53;97348.78;5066015;28;20036;-79
2022/09/30 00:04:31;;;;;;;1.98;1.55;;;;;;;29.40;23.96;97348.53;5059364;28;20119;-79
2022/09/30 00:06:57;;;;;;;1.92;1.48;;;;;;;29.49;24.03;97350.47;5069337;28;20166;-79
2022/09/30 00:09:23;;;;;;;1.63;1.52;;;;;;;29.93;23.22;97350.44;5068957;28;20431;-79
2022/09/30 00:11:49;;;;;;;1.95;1.63;;;;;;;30.17;22.82;97347.44;5060541;28;20036;-79
2022/09/30 00:14:21;;;;;;;2.95;2.47;;;;;;;29.61;23.42;97355.03;5075403;28;20064;-80
2022/09/30 00:16:50;;;;;;;2.13;1.92;;;;;;;29.28;23.86;97355.25;5066340;28;20040;-79
2022/09/30 00:19:16;;;;;;;2.40;2.17;;;;;;;29.20;23.83;97354.06;5070962;28;20037;-79
2022/09/30 00:21:42;;;;;;;4.70;2.97;;;;;;;28.73;24.51;97345.66;5049375;28;20097;-79
2022/09/30 00:24:09;;;;;;;3.25;1.70;;;;;;;28.22;25.19;97333.75;5065245;28;20114;-79
2022/09/30 00:26:35;;;;;;;2.55;1.70;;;;;;;28.20;25.42;97339.91;5064077;28;20041;-78
2022/09/30 00:29:01;;;;;;;1.98;1.55;;;;;;;28.79;24.50;97335.25;5068196;28;20056;-79
2022/09/30 00:31:30;;;;;;;1.85;1.58;;;;;;;29.49;23.60;97341.97;5067193;28;20048;-80
2022/09/30 00:34:05;;;;;;;2.42;1.77;;;;;;;29.98;23.12;97342.03;5064351;28;20032;-79
2022/09/30 00:36:35;;;;;;;2.35;2.15;;;;;;;30.24;22.78;97339.31;5068275;28;20478;-79
2022/09/30 00:39:03;;;;;;;1.87;1.60;;;;;;;30.39;22.63;97342.09;5066985;28;20033;-79
2022/09/30 00:41:29;;;;;;;2.28;1.73;;;;;;;30.53;22.36;97335.59;5062979;28;20032;-79
2022/09/30 00:43:55;;;;;;;2.13;1.92;;;;;;;30.12;22.66;97337.59;5059219;28;20036;-79
2022/09/30 00:46:35;;;;;;;2.30;1.88;;;;;;;29.26;23.75;97338.00;5065026;28;20028;-79
2022/09/30 00:49:15;;;;;;;2.07;1.87;;;;;;;28.92;24.71;97338.59;5060933;28;20052;-79
2022/09/30 00:51:48;;;;;;;2.80;1.87;;;;;;;28.92;24.27;97343.47;5062959;28;20032;-79
2022/09/30 00:54:20;;;;;;;2.83;2.38;;;;;;;29.14;24.16;97355.19;5066075;28;20037;-79
2022/09/30 00:56:51;;;;;;;2.72;2.00;;;;;;;29.51;23.83;97359.22;5066766;28;20033;-79
2022/09/30 00:59:24;;;;;;;2.85;1.83;;;;;;;29.82;23.43;97370.06;5061681;28;20048;-79
2022/09/30 01:01:51;;;;;;;2.75;1.58;;;;;;;30.05;22.90;97372.75;5059561;28;20033;-80
2022/09/30 01:04:23;;;;;;;1.73;1.63;;;;;;;30.26;22.83;97365.09;5066621;28;20123;-79
2022/09/30 01:06:50;;;;;;;2.80;2.20;;;;;;;30.06;22.92;97359.38;5064680;28;20040;-79
2022/09/30 01:09:20;;;;;;;3.00;2.45;;;;;;;29.52;23.55;97365.69;5066219;28;20031;-79
2022/09/30 01:11:47;;;;;;;4.05;1.98;;;;;;;29.04;24.29;97356.53;5062647;28;20029;-79
2022/09/30 01:14:17;;;;;;;2.53;2.08;;;;;;;28.65;24.56;97350.91;5063393;28;20029;-79
2022/09/30 01:16:52;;;;;;;5.10;2.10;;;;;;;28.59;24.97;97355.66;5066969;28;20089;-79
2022/09/30 01:19:51;;;;;;;2.88;2.42;;;;;;;28.41;25.49;97361.41;5061354;28;20037;-79
2022/09/30 01:22:57;;;;;;;2.92;2.67;;;;;;;28.53;24.99;97356.78;5007105;28;20097;-79
2022/09/30 01:26:03;;;;;;;3.03;2.72;;;;;;;27.80;26.15;97362.81;5046448;28;20041;-79
2022/09/30 01:29:14;;;;;;;3.50;2.33;;;;;;;28.20;25.63;97356.06;5066511;28;20032;-79
2022/09/30 01:32:08;;;;;;;3.60;2.88;;;;;;;28.48;25.23;97348.97;5065704;28;20036;-80
2022/09/30 01:34:59;;;;;;;3.10;2.38;;;;;;;28.43;25.39;97352.44;5060241;28;20044;-79
2022/09/30 01:37:57;;;;;;;3.17;2.63;;;;;;;27.47;26.88;97347.88;5067227;28;20025;-79
2022/09/30 01:40:39;;;;;;;4.45;3.40;;;;;;;27.31;27.13;97359.50;5067310;28;20040;-79
2022/09/30 01:43:18;;;;;;;3.20;2.60;;;;;;;27.72;26.71;97360.81;5063028;28;20031;-81
2022/09/30 01:45:54;;;;;;;3.65;2.40;;;;;;;27.32;27.54;97361.84;5067658;28;20116;-79
2022/09/30 01:48:23;;;;;;;5.45;4.45;;;;;;;26.01;29.01;97363.16;5061533;28;20554;-80
2022/09/30 01:51:02;;;;;;;4.80;2.92;;;;;;;26.48;28.43;97366.41;5067219;28;20040;-79
2022/09/30 01:53:50;;;;;;;4.00;3.30;;;;;;;26.06;29.50;97365.34;5067190;28;20037;-79
2022/09/30 01:56:28;;;;;;;2.80;2.50;;;;;;;27.13;27.91;97356.72;5066337;28;20117;-80
2022/09/30 01:59:21;;;;;;;3.67;2.63;;;;;;;27.62;27.03;97354.44;5051769;28;20494;-79
2022/09/30 02:02:01;;;;;;;3.95;3.08;;;;;;;27.33;27.37;97356.97;5070750;28;20036;-80
2022/09/30 02:04:52;;;;;;;4.53;3.67;;;;;;;26.95;27.94;97354.72;5068042;28;20028;-79
2022/09/30 02:07:42;;;;;;;4.80;3.80;;;;;;;26.80;28.05;97345.31;5045234;28;20128;-79
2022/09/30 02:10:16;;;;;;;6.00;3.70;;;;;;;26.83;28.35;97349.22;5064512;28;20116;-79
2022/09/30 02:12:57;;;;;;;5.80;3.40;;;;;;;27.34;27.59;97347.28;5063756;28;20028;-79
2022/09/30 02:15:29;;;;;;;5.75;3.67;;;;;;;27.17;27.74;97346.84;5067365;28;20040;-79
2022/09/30 02:18:03;;;;;;;6.80;4.93;;;;;;;26.52;28.55;97346.53;5064953;28;20054;-79
2022/09/30 02:20:35;;;;;;;4.40;3.63;;;;;;;26.71;28.62;97351.72;5068771;28;20024;-79
2022/09/30 02:23:24;;;;;;;5.95;3.85;;;;;;;27.05;28.23;97355.50;5062378;28;20032;-79
2022/09/30 02:26:20;;;;;;;4.30;3.50;;;;;;;26.83;28.78;97343.59;5063607;28;20043;-80
2022/09/30 02:29:03;;;;;;;5.18;3.72;;;;;;;27.72;27.06;97361.59;5061737;28;20432;-79
2022/09/30 02:31:33;;;;;;;5.47;3.53;;;;;;;27.79;26.97;97354.84;5066949;28;20033;-80
2022/09/30 02:34:15;;;;;;;4.18;3.40;;;;;;;26.52;28.67;97355.78;5064442;28;20059;-79
2022/09/30 02:36:49;;;;;;;4.47;3.25;;;;;;;27.25;27.87;97347.31;5064894;28;20024;-79
2022/09/30 02:39:35;;;;;;;4.25;3.58;;;;;;;27.72;27.30;97353.16;5066638;28;20041;-79
2022/09/30 02:42:10;;;;;;;6.57;3.53;;;;;;;28.29;26.28;97359.59;5064937;28;20079;-79
2022/09/30 02:44:37;;;;;;;3.90;3.20;;;;;;;27.76;27.07;97365.03;5062435;28;20115;-79
2022/09/30 02:47:18;;;;;;;4.25;3.70;;;;;;;27.89;26.77;97364.84;5069429;28;20035;-80
2022/09/30 02:50:06;;;;;;;4.00;2.97;;;;;;;27.82;26.69;97365.94;5060801;28;20595;-79
2022/09/30 02:53:00;;;;;;;6.47;3.58;;;;;;;27.98;26.53;97362.72;5066721;28;20036;-79
2022/09/30 02:55:38;;;;;;;2.95;2.55;;;;;;;27.44;27.26;97365.78;5064146;28;20497;-79
2022/09/30 02:58:13;;;;;;;8.25;4.57;;;;;;;25.83;30.14;97363.88;5066308;28;20033;-79
2022/09/30 03:00:39;;;;;;;4.45;3.72;;;;;;;25.79;30.19;97362.47;5067007;28;20085;-80
2022/09/30 03:03:18;;;;;;;4.00;3.45;;;;;;;26.27;29.38;97363.72;5064933;28;20050;-80
2022/09/30 03:05:47;;;;;;;4.97;3.45;;;;;;;26.61;28.69;97371.88;5068958;28;20048;-77
2022/09/30 03:08:13;;;;;;;4.20;3.13;;;;;;;27.14;27.92;97361.88;5071821;28;20485;-77
2022/09/30 03:10:40;;;;;;;4.53;3.70;;;;;;;26.94;28.03;97366.44;5069432;28;20033;-78
2022/09/30 03:13:52;;;;;;;6.95;4.18;;;;;;;25.06;31.15;97364.84;5069206;28;20033;-79
2022/09/30 03:16:24;;;;;;;4.70;4.20;;;;;;;26.25;29.68;97364.19;5071088;28;20140;-77
2022/09/30 03:18:53;;;;;;;4.93;3.55;;;;;;;26.18;29.78;97372.94;5075360;28;20496;-79
2022/09/30 03:21:37;;;;;;;4.35;3.65;;;;;;;26.89;28.70;97378.31;5072611;28;20517;-79
2022/09/30 03:24:28;;;;;;;5.57;4.75;;;;;;;25.56;30.27;97385.44;5066068;28;20024;-79
2022/09/30 03:27:30;;;;;;;5.75;3.58;;;;;;;26.04;30.01;97376.28;5073671;28;20214;-79
2022/09/30 03:29:55;;;;;;;4.65;3.55;;;;;;;26.23;29.66;97377.94;5071637;28;20055;-79
2022/09/30 03:33:06;;;;;;;5.82;4.07;;;;;;;26.23;29.16;97379.97;5068834;28;20040;-79
2022/09/30 03:36:00;;;;;;;5.80;4.05;;;;;;;27.08;28.10;97375.03;5067535;28;20115;-79
2022/09/30 03:38:40;;;;;;;4.03;3.00;;;;;;;27.77;27.21;97377.84;5072204;28;20054;-79
2022/09/30 03:41:45;;;;;;;3.65;2.80;;;;;;;28.12;26.76;97381.06;5064061;28;20024;-79
2022/09/30 03:44:36;;;;;;;4.60;3.00;;;;;;;28.46;26.10;97374.88;5065284;28;20040;-79
2022/09/30 03:47:12;;;;;;;4.05;3.28;;;;;;;27.98;27.03;97381.72;5064808;28;20032;-79
2022/09/30 03:49:50;;;;;;;5.10;3.05;;;;;;;28.01;26.81;97389.25;5073386;28;20039;-79
2022/09/30 03:52:17;;;;;;;4.03;3.00;;;;;;;27.73;26.99;97393.41;5070142;28;23214;-79
2022/09/30 03:54:57;;;;;;;4.63;3.20;;;;;;;27.98;26.92;97385.28;5071673;28;20028;-79
2022/09/30 03:57:27;;;;;;;3.57;2.97;;;;;;;27.89;27.13;97393.81;5069464;28;20098;-79
2022/09/30 03:59:54;;;;;;;3.65;2.95;;;;;;;28.25;26.60;97400.56;5071989;28;20390;-79
2022/09/30 04:02:20;;;;;;;3.17;2.78;;;;;;;28.06;26.82;97402.69;5058084;28;20043;-79
2022/09/30 04:04:46;;;;;;;2.80;2.35;;;;;;;28.37;26.39;97403.19;5064137;28;20039;-79
2022/09/30 04:07:13;;;;;;;3.67;2.88;;;;;;;28.40;26.38;97402.19;5069720;28;20027;-79
2022/09/30 04:09:39;;;;;;;3.05;2.70;;;;;;;27.82;27.08;97399.78;5068937;28;20039;-79
2022/09/30 04:12:06;;;;;;;3.40;2.67;;;;;;;28.22;26.65;97398.69;5071132;28;20034;-79
2022/09/30 04:14:33;;;;;;;6.75;3.78;;;;;;;27.95;27.13;97400.38;5065646;28;20032;-79
2022/09/30 04:16:59;;;;;;;5.40;3.22;;;;;;;27.61;27.16;97400.03;5068045;28;20037;-79
2022/09/30 04:19:25;;;;;;;3.63;2.60;;;;;;;27.79;27.24;97400.75;5060949;28;20570;-79
2022/09/30 04:21:52;;;;;;;3.17;2.50;;;;;;;27.59;27.34;97408.94;5066395;28;20044;-79
2022/09/30 04:24:22;;;;;;;3.15;2.88;;;;;;;27.60;27.80;97387.97;5050073;28;20040;-79
2022/09/30 04:26:49;;;;;;;4.65;3.35;;;;;;;27.21;28.27;97394.59;5069549;28;20029;-79
2022/09/30 04:29:16;;;;;;;3.38;2.60;;;;;;;27.56;27.67;97384.53;5065820;28;20518;-79
2022/09/30 04:31:42;;;;;;;2.85;2.65;;;;;;;28.04;26.95;97391.91;5059435;28;20037;-79
2022/09/30 04:34:10;;;;;;;3.60;2.80;;;;;;;27.99;27.11;97398.19;5059460;28;20050;-79
2022/09/30 04:36:36;;;;;;;3.22;2.72;;;;;;;28.75;26.05;97397.59;5061342;28;20056;-78
2022/09/30 04:39:03;;;;;;;5.32;3.75;;;;;;;28.79;25.81;97397.44;5061132;28;20119;-79
2022/09/30 04:41:31;;;;;;;5.00;3.40;;;;;;;28.95;25.69;97399.03;5062766;28;20032;-79
2022/09/30 04:43:57;;;;;;;3.92;3.03;;;;;;;28.78;25.77;97404.31;5061117;28;20036;-79
2022/09/30 04:46:23;;;;;;;3.75;2.92;;;;;;;28.45;26.38;97421.31;5065881;28;20517;-79
2022/09/30 04:48:49;;;;;;;8.23;4.63;;;;;;;27.91;27.16;97411.03;5066542;28;20035;-78
2022/09/30 04:51:18;;;;;;;5.93;3.92;;;;;;;27.59;27.63;97408.16;5067998;28;20498;-78
2022/09/30 04:53:45;;;;;;;5.38;3.40;;;;;;;27.48;27.89;97413.53;5071414;28;20398;-79
2022/09/30 04:56:11;;;;;;;6.18;3.70;;;;;;;27.59;27.74;97405.34;5070762;28;20028;-78
2022/09/30 04:58:38;;;;;;;5.97;4.03;;;;;;;27.27;28.25;97409.63;5069987;28;20044;-78
2022/09/30 05:01:06;;;;;;;5.45;3.67;;;;;;;26.98;28.49;97404.47;5052585;28;20116;-79
2022/09/30 05:03:33;;;;;;;7.18;5.43;;;;;;;26.28;29.67;97404.69;5053173;28;20479;-79
2022/09/30 05:06:00;;;;;;;5.47;4.47;;;;;;;26.63;29.24;97409.59;5053780;28;20421;-78
2022/09/30 05:08:26;;;;;;;5.78;4.03;;;;;;;26.09;30.19;97413.03;5053867;28;20076;-78
2022/09/30 05:10:57;;;;;;;4.70;3.97;;;;;;;25.97;30.66;97413.16;5064656;28;20032;-79
2022/09/30 05:13:24;;;;;;;;;;;;;;;25.75;30.56;97415.22;5073870;28;20032;-79
2022/09/30 05:15:50;;;;;;;5.43;4.22;;;;;;;25.68;30.87;97426.75;5070156;28;19921;-78
2022/09/30 05:18:19;;;;;;;5.63;3.90;;;;;;;25.82;30.82;97429.81;5053416;28;20547;-79
2022/09/30 05:20:49;;;;;;;5.03;3.88;;;;;;;27.02;28.89;97427.66;5066601;28;20032;-78
2022/09/30 05:23:16;;;;;;;4.43;3.50;;;;;;;26.52;29.53;97431.78;5072540;28;20077;-78
2022/09/30 05:25:42;;;;;;;3.55;2.78;;;;;;;26.33;30.05;97429.38;5073316;28;20282;-78
2022/09/30 05:28:08;;;;;;;4.60;3.30;;;;;;;26.98;29.07;97437.53;5073517;28;20031;-78
2022/09/30 05:30:34;;;;;;;2.92;2.72;;;;;;;27.11;28.96;97424.84;5072513;28;20040;-79
2022/09/30 05:33:00;;;;;;;4.43;3.13;;;;;;;26.82;29.22;97437.78;5063452;28;20060;-79
2022/09/30 05:35:26;;;;;;;5.57;4.10;;;;;;;26.40;29.98;97440.34;5069015;28;20016;-78
2022/09/30 05:37:53;;;;;;;8.23;3.60;;;;;;;25.85;30.95;97442.16;5073184;28;20031;-78
2022/09/30 05:40:19;;;;;;;7.55;3.70;;;;;;;25.24;31.91;97438.03;5055403;28;20051;-78
2022/09/30 05:42:46;;;;;;;4.43;3.42;;;;;;;26.19;30.83;97441.22;5071127;28;20028;-78
2022/09/30 05:45:12;;;;;;;4.57;3.65;;;;;;;27.14;29.03;97437.97;5053049;28;20036;-78
2022/09/30 05:47:38;;;;;;;4.97;3.30;;;;;;;26.74;29.79;97440.91;5064687;28;20032;-78
2022/09/30 05:50:05;;;;;;;3.97;3.33;;;;;;;27.48;28.47;97441.72;5068421;28;20093;-78
2022/09/30 05:52:32;;;;;;;5.45;4.20;;;;;;;26.47;30.09;97443.66;5053355;28;20029;-79
2022/09/30 05:55:04;;;;;;;4.70;3.70;;;;;;;26.49;30.32;97441.16;5052843;28;20040;-78
2022/09/30 05:57:30;;;;;;;4.70;3.80;;;;;;;27.05;29.43;97451.28;5053123;28;20033;-78
2022/09/30 05:59:56;;;;;;;4.00;3.60;;;;;;;26.52;30.16;97457.13;5052813;28;20509;-79
2022/09/30 06:02:23;;;;;;;6.25;3.75;;;;;;;26.26;30.64;97455.78;5052897;28;20048;-79
2022/09/30 06:04:49;;;;;;;4.30;3.83;;;;;;;27.06;29.51;97455.66;5065710;28;20370;-78
2022/09/30 06:07:16;;;;;;;4.82;4.22;;;;;;;27.06;29.29;97450.03;5072371;28;20486;-78
2022/09/30 06:09:42;;;;;;;3.85;3.40;;;;;;;27.07;29.06;97452.38;5072829;28;20040;-78
2022/09/30 06:12:08;;;;;;;5.55;4.15;;;;;;;25.21;32.49;97460.59;5072808;28;20033;-78
2022/09/30 06:14:35;;;;;;;8.40;6.85;;;;;;;23.78;35.13;97471.34;5072864;28;20491;-78
2022/09/30 06:17:01;;;;;;;9.80;5.00;;;;;;;25.54;31.76;97475.88;5072719;28;20067;-79
2022/09/30 06:19:30;;;;;;;6.70;4.72;;;;;;;24.23;34.36;97473.19;5072616;28;20029;-78
2022/09/30 06:21:57;;;;;;;7.82;5.70;;;;;;;23.88;35.19;97467.44;5072835;28;20025;-78
2022/09/30 06:24:23;;;;;;;5.75;4.38;;;;;;;25.84;31.94;97463.06;5064345;28;20048;-79
2022/09/30 06:26:49;;;;;;;7.07;4.82;;;;;;;26.43;30.55;97470.41;5052937;28;20037;-78
2022/09/30 06:29:15;;;;;;;6.95;5.03;;;;;;;26.49;30.28;97469.31;5053160;28;20025;-78
2022/09/30 06:31:41;;;;;;;8.27;5.20;;;;;;;26.34;30.63;97478.81;5051425;28;20507;-80
2022/09/30 06:34:09;;;;;;;11.07;7.78;;;;;;;25.09;32.72;97467.84;5052333;28;20533;-79
2022/09/30 06:36:35;;;;;;;8.55;6.18;;;;;;;24.61;33.83;97471.13;5062948;28;20028;-78
2022/09/30 06:39:02;;;;;;;10.65;7.13;;;;;;;24.40;34.77;97464.19;5072251;28;20044;-79
2022/09/30 06:41:28;;;;;;;5.85;4.07;;;;;;;25.00;33.26;97461.38;5073409;28;20036;-79
2022/09/30 06:43:55;;;;;;;9.57;5.90;;;;;;;25.61;32.35;97466.38;5065174;28;20091;-79
2022/09/30 06:46:23;;;;;;;8.95;5.38;;;;;;;26.25;31.09;97459.09;5076539;28;20033;-79
2022/09/30 06:48:53;;;;;;;8.10;5.57;;;;;;;26.71;30.56;97450.28;5076252;28;20036;-79
2022/09/30 06:51:19;;;;;;;6.28;4.38;;;;;;;27.61;29.34;97456.44;5061897;28;20037;-78
2022/09/30 06:53:49;;;;;;;8.75;6.03;;;;;;;26.49;30.82;97452.41;5056339;28;20482;-79
2022/09/30 06:56:17;;;;;;;12.07;7.68;;;;;;;25.29;32.83;97457.09;5073149;28;20043;-79
2022/09/30 06:58:44;;;;;;;8.63;6.28;;;;;;;25.04;33.33;97456.44;5065569;28;20035;-78
2022/09/30 07:01:14;;;;;;;9.23;6.60;;;;;;;26.00;31.45;97466.44;5055247;28;20025;-79
2022/09/30 07:03:43;;;;;;;5.80;4.57;;;;;;;27.64;29.23;97469.59;5055742;28;20025;-79
2022/09/30 07:06:11;;;;;;;10.10;6.32;;;;;;;26.79;30.37;97469.72;5056166;28;20489;-78
2022/09/30 07:08:37;;;;;;;6.57;5.05;;;;;;;25.79;32.11;97469.31;5055971;28;20029;-78
2022/09/30 07:11:13;;;;;;;7.28;5.40;;;;;;;26.86;30.74;97470.22;5056077;28;20120;-79
2022/09/30 07:13:44;;;;;;;7.47;5.05;;;;;;;27.81;28.77;97473.63;5075631;28;20040;-78
2022/09/30 07:16:12;;;;;;;7.35;4.88;;;;;;;25.93;32.00;97482.81;5075079;28;20120;-79
2022/09/30 07:18:41;;;;;;;7.40;5.30;;;;;;;25.90;31.79;97487.34;5075491;28;20024;-79
2022/09/30 07:21:07;;;;;;;10.18;6.70;;;;;;;25.07;33.54;97475.97;5076230;28;20025;-78
2022/09/30 07:23:34;;;;;;;7.60;5.03;;;;;;;24.64;34.17;97487.06;5075965;28;20064;-79
2022/09/30 07:26:03;;;;;;;6.82;4.32;;;;;;;25.81;32.55;97487.28;5075873;28;20048;-79
2022/09/30 07:28:33;;;;;;;8.10;5.30;;;;;;;26.81;30.89;97484.91;5075963;28;20047;-79
2022/09/30 07:31:05;;;;;;;5.70;4.43;;;;;;;27.09;30.19;97488.56;5074933;28;20425;-79
2022/09/30 07:33:32;;;;;;;8.52;4.55;;;;;;;26.14;31.58;97489.69;5057407;28;20037;-79
2022/09/30 07:35:59;;;;;;;5.07;3.72;;;;;;;27.57;29.51;97486.81;5037850;28;20072;-79
2022/09/30 07:38:29;;;;;;;6.82;5.03;;;;;;;26.33;31.72;97488.50;5055507;28;20120;-79
2022/09/30 07:40:59;;;;;;;8.32;6.07;;;;;;;24.71;34.75;97489.63;5074339;28;20039;-79
2022/09/30 07:43:33;;;;;;;6.73;4.33;;;;;;;25.29;33.97;97490.81;5075532;28;20028;-79
2022/09/30 07:46:06;;;;;;;9.68;6.20;;;;;;;24.67;35.01;97486.16;5075370;28;20036;-79
2022/09/30 07:48:42;;;;;;;8.23;5.82;;;;;;;25.17;33.90;97494.47;5074129;28;20043;-79
2022/09/30 07:51:10;;;;;;;5.45;4.03;;;;;;;26.05;32.25;97499.59;5055128;28;20490;-78
2022/09/30 07:53:36;;;;;;;5.88;3.50;;;;;;;27.42;30.01;97491.56;5054360;28;20029;-79
2022/09/30 07:56:05;;;;;;;5.13;3.55;;;;;;;28.47;28.73;97489.41;5055148;28;20037;-79
2022/09/30 07:58:31;;;;;;;4.57;3.38;;;;;;;27.83;29.25;97505.75;5055188;28;20033;-79
2022/09/30 08:00:57;;;;;;;4.00;3.20;;;;;;;28.00;28.72;97494.94;5036562;28;20041;-79
2022/09/30 08:03:23;;;;;;;4.13;3.10;;;;;;;27.74;29.58;97497.31;5063720;28;20036;-79
2022/09/30 08:05:49;;;;;;;8.25;5.97;;;;;;;26.18;32.07;97505.19;5074250;28;20059;-79
2022/09/30 08:08:17;;;;;;;5.85;4.20;;;;;;;25.72;32.88;97509.72;5075045;28;20037;-79
2022/09/30 08:10:43;;;;;;;9.18;5.82;;;;;;;25.17;34.11;97502.91;5075026;28;20055;-80
2022/09/30 08:13:12;;;;;;;4.60;3.45;;;;;;;25.08;34.45;97500.00;5074795;28;20039;-80
2022/09/30 08:15:39;;;;;;;5.15;3.55;;;;;;;26.20;32.26;97501.91;5074736;28;20144;-79
2022/09/30 08:18:05;;;;;;;6.95;4.10;;;;;;;27.23;30.27;97505.63;5074684;28;20036;-79
2022/09/30 08:20:31;;;;;;;5.25;3.97;;;;;;;27.12;30.17;97510.16;5074756;28;20104;-79
2022/09/30 08:22:57;;;;;;;4.78;3.75;;;;;;;27.78;28.97;97508.41;5074181;28;20037;-79
2022/09/30 08:25:25;;;;;;;4.28;3.35;;;;;;;28.50;28.27;97510.25;5074884;28;20093;-79
2022/09/30 08:27:51;;;;;;;5.05;3.28;;;;;;;28.96;27.62;97508.78;5074716;28;20543;-79
2022/09/30 08:30:17;;;;;;;4.95;3.90;;;;;;;27.98;28.91;97511.53;5056514;28;20036;-80
2022/09/30 08:32:43;;;;;;;5.88;4.50;;;;;;;26.76;31.28;97524.19;5067061;28;20033;-80
2022/09/30 08:35:09;;;;;;;5.25;3.67;;;;;;;26.31;32.19;97522.75;5069968;28;20517;-79
2022/09/30 08:37:35;;;;;;;5.90;4.65;;;;;;;26.78;31.41;97527.31;5074413;28;20089;-79
2022/09/30 08:40:01;;;;;;;4.82;3.83;;;;;;;27.47;29.83;97519.13;5069172;28;20114;-79
2022/09/30 08:42:44;;;;;;;6.03;3.90;;;;;;;27.80;29.39;97515.16;5054565;28;20041;-79
2022/09/30 08:45:22;;;;;;;7.85;5.38;;;;;;;27.57;29.69;97515.03;5054348;28;20398;-79
2022/09/30 08:48:13;;;;;;;6.30;3.75;;;;;;;27.42;30.08;97515.66;5056845;28;20173;-78
2022/09/30 08:51:00;;;;;;;8.32;5.57;;;;;;;27.33;30.07;97521.28;5074102;28;20108;-79
2022/09/30 08:53:32;;;;;;;6.22;4.47;;;;;;;27.21;30.54;97522.19;5056254;28;20036;-79
2022/09/30 08:56:01;;;;;;;6.07;3.90;;;;;;;28.11;29.22;97520.59;5074262;28;20398;-79
2022/09/30 08:58:37;;;;;;;5.18;3.78;;;;;;;26.62;32.02;97528.34;5056922;28;20112;-79
2022/09/30 09:01:16;;;;;;;6.50;4.38;;;;;;;25.71;33.17;97518.63;5053103;28;20036;-79
2022/09/30 09:03:44;;;;;;;9.13;5.00;;;;;;;25.56;33.62;97526.00;5035797;28;20037;-79
2022/09/30 09:06:20;;;;;;;8.45;5.32;;;;;;;25.01;34.71;97517.09;5054133;28;20029;-79
2022/09/30 09:08:55;;;;;;;8.65;5.63;;;;;;;25.80;33.62;97524.31;5055036;28;20045;-79
2022/09/30 09:11:39;;;;;;;7.03;5.28;;;;;;;26.55;32.17;97520.97;5062849;28;20107;-79
2022/09/30 09:14:29;;;;;;;7.63;4.93;;;;;;;26.56;32.35;97516.09;5067903;28;20037;-79
2022/09/30 09:17:23;;;;;;;6.68;4.63;;;;;;;26.69;31.97;97520.38;5053569;28;20056;-78
2022/09/30 09:20:13;;;;;;;7.82;5.10;;;;;;;25.75;32.93;97525.69;5053765;28;20502;-78
2022/09/30 09:22:40;;;;;;;8.13;6.13;;;;;;;24.94;34.69;97510.94;5053820;28;20033;-78
2022/09/30 09:25:11;;;;;;;7.30;4.70;;;;;;;25.89;32.93;97527.19;5056495;28;20031;-79
2022/09/30 09:28:00;;;;;;;5.63;4.38;;;;;;;26.89;31.39;97519.97;5066481;28;20036;-78
2022/09/30 09:30:31;;;;;;;6.53;4.30;;;;;;;26.58;32.21;97528.47;5037507;28;20119;-81
2022/09/30 09:33:26;;;;;;;5.50;3.65;;;;;;;27.17;30.73;97529.25;5044831;28;20191;-79
2022/09/30 09:36:23;;;;;;;5.38;3.45;;;;;;;27.30;30.88;97530.69;5062316;28;20045;-78
2022/09/30 09:39:14;;;;;;;5.35;4.10;;;;;;;27.12;31.04;97532.72;5070277;28;20043;-79
2022/09/30 09:41:52;;;;;;;4.80;3.95;;;;;;;28.00;29.94;97540.88;5070671;28;20094;-79
2022/09/30 09:44:42;;;;;;;5.63;3.50;;;;;;;28.80;28.44;97542.31;5071133;28;20036;-80
2022/09/30 09:47:15;;;;;;;4.80;3.75;;;;;;;27.55;29.93;97543.72;5071231;28;20072;-79
2022/09/30 09:50:03;;;;;;;4.68;3.10;;;;;;;27.96;29.83;97536.59;5052733;28;20117;-79
2022/09/30 09:53:27;;;;;;;3.78;3.15;;;;;;;27.35;30.21;97541.31;5066315;28;20464;-79
2022/09/30 09:55:58;;;;;;;3.83;2.63;;;;;;;28.74;28.17;97545.00;4990333;28;20627;-79
2022/09/30 09:58:25;;;;;;;3.75;2.67;;;;;;;29.18;27.85;97548.88;4974316;28;20041;-79
2022/09/30 10:03:26;;;;;;;2.63;2.30;;;;;;;28.29;29.27;97545.16;5070216;28;20092;-79
2022/09/30 10:06:08;;;;;;;4.03;3.17;;;;;;;27.12;30.46;97549.63;5070815;28;20056;-76
2022/09/30 10:08:38;;;;;;;5.03;2.90;;;;;;;27.26;30.75;97546.97;5070414;28;20041;-77
2022/09/30 10:11:07;;;;;;;4.47;2.93;;;;;;;28.08;29.59;97553.38;5071172;28;20037;-77
2022/09/30 10:13:43;;;;;;;4.22;3.33;;;;;;;28.71;28.81;97552.41;5065963;28;20031;-78
2022/09/30 10:16:28;;;;;;;3.13;2.40;;;;;;;29.13;28.12;97557.97;5068749;28;20127;-78
2022/09/30 10:18:54;;;;;;;3.15;2.15;;;;;;;28.35;29.24;97552.53;5070710;28;20029;-79
2022/09/30 10:21:26;;;;;;;5.57;3.90;;;;;;;26.84;31.68;97564.91;5071355;28;20071;-78
2022/09/30 10:23:53;;;;;;;4.13;2.85;;;;;;;27.21;30.99;97561.66;5067642;28;20025;-80
2022/09/30 10:26:24;;;;;;;3.70;2.83;;;;;;;27.54;31.42;97558.28;5071688;28;20094;-79
2022/09/30 10:28:59;;;;;;;3.78;2.80;;;;;;;28.73;29.40;97566.03;5071215;28;20063;-79
2022/09/30 10:31:37;;;;;;;4.70;2.42;;;;;;;29.19;28.37;97567.41;5061746;28;20060;-80
2022/09/30 10:34:31;;;;;;;3.03;2.42;;;;;;;28.18;29.65;97567.47;5070417;28;20517;-80
2022/09/30 10:37:01;;;;;;;2.08;1.88;;;;;;;28.85;28.98;97573.53;5067951;28;20063;-79
2022/09/30 10:39:36;;;;;;;2.10;1.73;;;;;;;29.07;28.68;97581.72;5069817;28;20032;-80
2022/09/30 10:42:20;;;;;;;3.08;2.05;;;;;;;28.48;29.35;97583.38;5069659;28;20033;-80
2022/09/30 10:44:48;;;;;;;2.65;2.35;;;;;;;29.15;28.19;97582.97;5052590;28;20024;-81
2022/09/30 10:47:18;;;;;;;2.45;2.08;;;;;;;29.14;28.68;97582.16;5069245;28;20115;-80
2022/09/30 10:50:06;;;;;;;2.30;1.90;;;;;;;29.42;28.67;97588.44;5070584;28;20131;-81
2022/09/30 10:52:46;;;;;;;1.90;1.73;;;;;;;29.96;27.52;97593.69;5070098;28;20139;-81
2022/09/30 10:55:21;;;;;;;1.98;1.77;;;;;;;30.13;26.79;97588.31;5061686;28;20059;-81
2022/09/30 10:57:49;;;;;;;1.98;1.35;;;;;;;29.39;28.05;97589.41;5069864;28;20032;-81
2022/09/30 11:00:18;;;;;;;1.80;1.70;;;;;;;29.80;27.32;97590.53;5069241;28;20037;-80
2022/09/30 11:02:47;;;;;;;1.88;1.67;;;;;;;30.34;26.83;97594.94;5069947;28;20032;-80
2022/09/30 11:05:23;;;;;;;1.98;1.40;;;;;;;30.93;25.98;97599.25;5070181;28;20036;-79
2022/09/30 11:08:03;;;;;;;2.10;1.60;;;;;;;31.20;25.96;97595.28;5070097;28;20105;-80
2022/09/30 11:11:01;;;;;;;1.70;1.60;;;;;;;29.74;27.34;97593.22;5069172;28;20551;-79
2022/09/30 11:13:35;;;;;;;2.55;2.35;;;;;;;28.22;29.70;97597.09;5063275;28;20025;-80
2022/09/30 11:16:25;;;;;;;1.50;1.40;;;;;;;28.70;29.09;97590.41;5061573;28;20051;-79
2022/09/30 11:19:37;;;;;;;2.00;1.40;;;;;;;28.51;29.48;97590.91;5070191;28;20040;-80
2022/09/30 11:22:27;;;;;;;1.73;1.42;;;;;;;28.78;29.21;97595.72;4987648;28;20081;-80
2022/09/30 11:24:56;;;;;;;1.97;1.30;;;;;;;28.08;30.17;97601.38;4989347;28;20030;-80
2022/09/30 11:27:49;;;;;;;2.13;1.70;;;;;;;29.13;28.68;97591.91;5041989;28;20069;-77
2022/09/30 11:30:29;;;;;;;1.83;1.30;;;;;;;28.86;29.18;97588.44;5073127;28;20485;-78
2022/09/30 11:33:13;;;;;;;1.50;1.40;;;;;;;29.16;28.56;97607.13;5071156;28;20042;-77
2022/09/30 11:36:00;;;;;;;1.20;1.10;;;;;;;29.58;28.17;97604.19;5072298;28;20068;-77
2022/09/30 11:38:50;;;;;;;3.80;2.03;;;;;;;28.45;29.43;97609.78;5068824;28;20033;-78
2022/09/30 11:41:21;;;;;;;1.50;1.35;;;;;;;28.93;28.93;97605.06;5073440;28;20039;-77
2022/09/30 11:44:00;;;;;;;2.03;1.60;;;;;;;28.98;28.67;97605.19;5072374;28;20035;-77
2022/09/30 11:46:48;;;;;;;2.15;1.50;;;;;;;28.67;28.94;97610.34;5070445;28;20032;-77
2022/09/30 11:49:31;;;;;;;1.95;1.10;;;;;;;28.72;29.39;97604.06;5068659;28;20481;-77
2022/09/30 11:52:34;;;;;;;1.90;1.52;;;;;;;28.26;29.84;97602.59;5072695;28;20025;-78
2022/09/30 11:55:35;;;;;;;1.92;1.35;;;;;;;26.82;31.88;97610.41;5072522;28;20036;-77
2022/09/30 11:58:25;;;;;;;1.55;1.20;;;;;;;28.41;30.27;97609.13;5069847;28;20067;-77
2022/09/30 12:00:57;;;;;;;1.35;1.25;;;;;;;28.61;29.93;97612.25;5071068;28;20365;-78
2022/09/30 12:03:43;;;;;;;1.10;1.00;;;;;;;29.49;28.55;97612.75;5069494;28;20044;-77
2022/09/30 12:06:25;;;;;;;1.20;1.10;;;;;;;29.13;28.65;97614.53;5072050;28;20033;-77
2022/09/30 12:08:58;;;;;;;1.50;1.40;;;;;;;28.83;29.07;97612.78;5072173;28;20026;-77
2022/09/30 12:11:51;;;;;;;1.50;1.40;;;;;;;29.65;28.66;97615.16;5064953;28;20119;-78